Time;durP1;ratioP1;P1;durP2;ratioP2;P2;SDS_P1;SDS_P2;PMS_P1;PMS_P2;Temp;Humidity;BMP_temperature;BMP_pressure;BME280_temperature;BME280_humidity;BME280_pressure;Samples;Min_cycle;Max_cycle;Signal;HPM_P1;HPM_P2
2024/03/08 00:01:24;;;;;;;1.83;1.50;;;;;;;22.52;42.68;101003.16;4430049;28;20044;-54
2024/03/08 00:03:35;;;;;;;1.52;1.42;;;;;;;22.52;42.31;100996.56;4445307;28;20048;-51
2024/03/08 00:05:45;;;;;;;1.83;1.42;;;;;;;22.53;41.80;101001.13;4444726;28;20106;-51
2024/03/08 00:07:56;;;;;;;1.42;1.30;;;;;;;22.49;42.61;101000.16;4412772;28;20125;-55
2024/03/08 00:10:14;;;;;;;1.67;1.58;;;;;;;22.49;44.01;101000.16;4444987;28;20095;-51
2024/03/08 00:12:26;;;;;;;2.47;1.67;;;;;;;22.48;44.01;100999.34;4444606;28;20044;-51
2024/03/08 00:14:37;;;;;;;1.80;1.48;;;;;;;22.47;43.98;100993.97;4444166;28;20042;-53
2024/03/08 00:16:48;;;;;;;1.50;1.40;;;;;;;22.48;44.63;100987.84;4443373;28;20046;-51
2024/03/08 00:18:58;;;;;;;1.58;1.42;;;;;;;22.47;43.85;100989.03;4444398;28;20095;-51
2024/03/08 00:21:08;;;;;;;1.45;1.35;;;;;;;22.48;43.70;100984.97;4444319;28;21132;-54
2024/03/08 00:23:19;;;;;;;1.60;1.50;;;;;;;22.46;40.29;100986.53;4444200;28;20927;-56
2024/03/08 00:25:29;;;;;;;1.70;1.38;;;;;;;22.47;42.22;100977.53;4444680;28;20735;-51
2024/03/08 00:27:40;;;;;;;1.70;1.42;;;;;;;22.49;43.61;100980.88;4443044;28;26648;-50
2024/03/08 00:29:51;;;;;;;1.75;1.50;;;;;;;22.50;43.81;100976.78;4442901;28;20036;-53
2024/03/08 00:32:01;;;;;;;1.92;1.40;;;;;;;22.50;43.96;100973.09;4444394;28;20027;-51
2024/03/08 00:34:12;;;;;;;1.40;1.30;;;;;;;22.51;43.59;100972.72;4444032;28;20114;-51
2024/03/08 00:36:22;;;;;;;1.80;1.30;;;;;;;22.50;43.48;100970.22;4433787;28;21615;-55
2024/03/08 00:38:34;;;;;;;1.55;1.42;;;;;;;22.51;43.88;100978.47;4430104;28;20041;-51
2024/03/08 00:40:45;;;;;;;1.58;1.45;;;;;;;22.53;41.71;100969.50;4443746;28;20186;-51
2024/03/08 00:42:55;;;;;;;1.73;1.55;;;;;;;22.51;40.06;100978.47;4444614;28;20497;-54
2024/03/08 00:45:06;;;;;;;1.70;1.58;;;;;;;22.51;42.38;100974.75;4443591;28;20031;-56
2024/03/08 00:47:17;;;;;;;1.50;1.40;;;;;;;22.51;43.93;100969.00;4441808;28;20225;-52
2024/03/08 00:49:27;;;;;;;1.42;1.33;;;;;;;22.49;44.36;100965.63;4442956;28;20405;-55
2024/03/08 00:51:38;;;;;;;2.20;1.42;;;;;;;22.50;44.43;100964.47;4443130;28;21687;-55
2024/03/08 00:53:48;;;;;;;1.75;1.40;;;;;;;22.46;44.93;100958.59;4444222;28;20040;-51
2024/03/08 00:55:58;;;;;;;1.50;1.30;;;;;;;22.45;45.99;100945.44;4442867;28;20046;-51
2024/03/08 00:58:09;;;;;;;1.50;1.38;;;;;;;22.46;46.24;100957.75;4443595;28;20034;-53
2024/03/08 01:00:21;;;;;;;1.60;1.50;;;;;;;22.46;46.15;100954.88;4443111;28;20035;-50
2024/03/08 01:02:33;;;;;;;1.88;1.60;;;;;;;22.46;46.30;100958.59;4444253;28;20051;-51
2024/03/08 01:04:43;;;;;;;1.48;1.35;;;;;;;22.46;46.15;100952.00;4444744;28;20031;-52
2024/03/08 01:06:56;;;;;;;1.70;1.40;;;;;;;22.46;46.04;100946.25;4443107;28;20051;-53
2024/03/08 01:09:07;;;;;;;1.80;1.60;;;;;;;22.46;45.90;100946.25;4442558;28;20027;-52
2024/03/08 01:11:17;;;;;;;1.85;1.48;;;;;;;22.46;46.01;100943.38;4444294;28;20482;-54
2024/03/08 01:13:28;;;;;;;1.55;1.33;;;;;;;22.45;46.25;100941.72;4445326;28;20043;-55
2024/03/08 01:15:41;;;;;;;1.67;1.50;;;;;;;22.45;46.81;100941.72;4444309;28;20107;-52
2024/03/08 01:17:51;;;;;;;2.15;1.50;;;;;;;22.45;46.80;100936.81;4443230;28;20034;-51
2024/03/08 01:20:03;;;;;;;1.48;1.30;;;;;;;22.45;46.50;100935.97;4444673;28;20034;-55
2024/03/08 01:22:13;;;;;;;1.50;1.40;;;;;;;22.45;46.09;100933.09;4444585;28;20067;-54
2024/03/08 01:24:25;;;;;;;1.73;1.58;;;;;;;22.43;46.67;100927.72;4443357;28;20051;-54
2024/03/08 01:26:35;;;;;;;1.50;1.38;;;;;;;22.42;46.37;100928.09;4444397;28;20032;-54
2024/03/08 01:28:45;;;;;;;1.60;1.42;;;;;;;22.43;46.43;100924.84;4443299;28;20048;-55
2024/03/08 01:30:56;;;;;;;1.60;1.27;;;;;;;22.43;46.53;100921.97;4443684;28;20371;-51
2024/03/08 01:33:06;;;;;;;1.50;1.30;;;;;;;22.43;46.34;100924.84;4445359;28;20505;-51
2024/03/08 01:35:18;;;;;;;1.30;1.20;;;;;;;22.40;46.66;100924.72;4445979;28;20031;-56
2024/03/08 01:37:29;;;;;;;1.40;1.30;;;;;;;22.41;46.62;100914.88;4446596;28;20039;-53
2024/03/08 01:39:39;;;;;;;1.65;1.55;;;;;;;22.40;46.83;100907.47;4447192;28;20102;-55
2024/03/08 01:41:50;;;;;;;1.55;1.42;;;;;;;22.42;46.30;100905.88;4446765;28;20078;-53
2024/03/08 01:44:01;;;;;;;1.23;1.13;;;;;;;22.41;46.10;100892.72;4446531;28;20089;-50
2024/03/08 01:46:16;;;;;;;1.35;1.25;;;;;;;22.40;46.17;100898.84;4447004;28;20130;-52
2024/03/08 01:48:29;;;;;;;1.80;1.40;;;;;;;22.41;46.45;100903.38;4446348;28;20090;-54
2024/03/08 01:50:39;;;;;;;1.38;1.27;;;;;;;22.41;46.04;100903.38;4447145;28;20071;-56
2024/03/08 01:52:49;;;;;;;1.67;1.40;;;;;;;22.40;46.29;100895.97;4445220;28;20550;-51
2024/03/08 01:55:02;;;;;;;1.73;1.50;;;;;;;22.39;46.35;100900.06;4445655;28;20130;-53
2024/03/08 01:57:13;;;;;;;1.77;1.30;;;;;;;22.38;46.33;100886.88;4445161;28;20592;-53
2024/03/08 01:59:26;;;;;;;1.60;1.50;;;;;;;22.38;46.16;100886.88;4446294;28;20035;-52
2024/03/08 02:01:37;;;;;;;1.73;1.35;;;;;;;22.40;46.15;100887.34;4446073;28;20518;-52
2024/03/08 02:03:47;;;;;;;1.30;1.20;;;;;;;22.41;46.21;100883.25;4447773;28;20091;-55
2024/03/08 02:05:58;;;;;;;1.52;1.42;;;;;;;22.39;45.99;100871.31;4444511;28;20035;-52
2024/03/08 02:08:13;;;;;;;1.48;1.30;;;;;;;22.38;46.27;100870.47;4446052;28;20059;-51
2024/03/08 02:10:24;;;;;;;1.75;1.40;;;;;;;22.39;45.46;100882.81;4445849;28;20019;-53
2024/03/08 02:12:34;;;;;;;2.60;1.40;;;;;;;22.36;45.31;100878.63;4444914;28;20039;-55
2024/03/08 02:14:45;;;;;;;1.50;1.30;;;;;;;22.36;45.13;100878.63;4444924;28;20068;-51
2024/03/08 02:16:57;;;;;;;1.60;1.45;;;;;;;22.36;45.39;100866.31;4444424;28;20079;-52
2024/03/08 02:19:09;;;;;;;1.48;1.38;;;;;;;22.35;45.77;100868.34;4444837;28;20034;-55
2024/03/08 02:21:20;;;;;;;1.73;1.40;;;;;;;22.35;46.31;100870.38;4446445;28;20172;-53
2024/03/08 02:23:32;;;;;;;1.77;1.45;;;;;;;22.34;46.30;100860.09;4447827;28;20126;-52
2024/03/08 02:25:42;;;;;;;1.40;1.30;;;;;;;22.32;46.36;100857.59;4445408;28;20035;-52
2024/03/08 02:27:52;;;;;;;1.65;1.38;;;;;;;22.33;46.40;100852.63;4445045;28;20051;-56
2024/03/08 02:30:05;;;;;;;1.40;1.30;;;;;;;22.32;46.51;100860.44;4446975;28;20039;-52
2024/03/08 02:32:15;;;;;;;1.52;1.40;;;;;;;22.33;46.76;100856.38;4443841;28;20044;-51
2024/03/08 02:34:26;;;;;;;1.63;1.50;;;;;;;22.33;46.96;100849.75;4433682;28;20039;-55
2024/03/08 02:36:36;;;;;;;1.40;1.30;;;;;;;22.32;47.08;100848.09;4444671;28;20050;-51
2024/03/08 02:38:47;;;;;;;1.35;1.25;;;;;;;22.33;46.75;100855.50;4445456;28;21153;-53
2024/03/08 02:40:57;;;;;;;1.45;1.35;;;;;;;22.32;46.96;100845.22;4445903;28;20023;-53
2024/03/08 02:43:08;;;;;;;1.58;1.45;;;;;;;22.33;46.55;100838.25;4444562;28;20066;-53
2024/03/08 02:45:19;;;;;;;1.73;1.50;;;;;;;22.32;47.19;100839.47;4444928;28;20040;-50
2024/03/08 02:47:31;;;;;;;1.48;1.38;;;;;;;22.34;46.99;100839.94;4445123;28;20514;-52
2024/03/08 02:49:41;;;;;;;1.70;1.60;;;;;;;22.33;46.79;100835.38;4445690;28;20035;-56
2024/03/08 02:51:53;;;;;;;1.52;1.40;;;;;;;22.31;47.09;100835.75;4445708;28;20495;-51
2024/03/08 02:54:04;;;;;;;1.60;1.50;;;;;;;22.32;46.91;100842.34;4445189;28;20114;-55
2024/03/08 02:56:16;;;;;;;1.30;1.20;;;;;;;22.32;46.72;100839.47;4444680;28;20106;-55
2024/03/08 02:58:27;;;;;;;1.45;1.33;;;;;;;22.32;46.88;100842.34;4445914;28;20075;-52
2024/03/08 03:00:38;;;;;;;1.60;1.48;;;;;;;22.30;47.13;100836.97;4445331;28;20071;-52
2024/03/08 03:02:53;;;;;;;1.55;1.42;;;;;;;22.29;46.91;100838.19;4445471;28;20047;-57
2024/03/08 03:05:06;;;;;;;1.67;1.40;;;;;;;22.29;47.29;100826.69;4431067;28;20043;-53
2024/03/08 03:07:16;;;;;;;1.40;1.30;;;;;;;22.30;46.94;100836.13;4444532;28;20050;-51
2024/03/08 03:09:27;;;;;;;2.03;1.50;;;;;;;22.29;47.11;100826.69;4444310;28;20510;-50
2024/03/08 03:11:38;;;;;;;1.58;1.30;;;;;;;22.30;46.58;100833.25;4444342;28;20123;-49
2024/03/08 03:13:48;;;;;;;1.80;1.45;;;;;;;22.29;46.98;100826.69;4445018;28;20044;-50
2024/03/08 03:15:58;;;;;;;1.50;1.40;;;;;;;22.25;47.24;100822.88;4444628;28;20031;-50
2024/03/08 03:18:09;;;;;;;1.40;1.30;;;;;;;22.26;47.21;100818.81;4430985;28;20039;-50
2024/03/08 03:20:39;;;;;;;1.63;1.30;;;;;;;22.26;46.83;100821.69;4445885;28;20062;-52
2024/03/08 03:22:51;;;;;;;1.38;1.27;;;;;;;22.26;47.26;100826.59;4445168;28;20858;-49
2024/03/08 03:25:04;;;;;;;1.95;1.40;;;;;;;22.25;47.17;100819.19;4444526;28;20031;-51
2024/03/08 03:27:15;;;;;;;2.22;1.58;;;;;;;22.23;47.03;100810.09;4444025;28;20062;-49
2024/03/08 03:29:25;;;;;;;1.83;1.40;;;;;;;22.21;46.85;100814.16;4445372;28;20873;-50
2024/03/08 03:31:36;;;;;;;1.58;1.48;;;;;;;22.21;47.00;100813.34;4443845;28;21904;-51
2024/03/08 03:33:46;;;;;;;1.40;1.30;;;;;;;22.21;47.04;100805.53;4443322;28;21120;-50
2024/03/08 03:35:57;;;;;;;1.30;1.20;;;;;;;22.20;46.91;100806.75;4445213;28;20043;-53
2024/03/08 03:38:07;;;;;;;1.48;1.38;;;;;;;22.21;46.97;100802.66;4444795;28;20032;-51
2024/03/08 03:40:19;;;;;;;1.60;1.48;;;;;;;22.23;46.71;100804.34;4444074;28;20032;-50
2024/03/08 03:42:29;;;;;;;1.50;1.30;;;;;;;22.21;46.85;100796.91;4444282;28;20139;-52
2024/03/08 03:44:40;;;;;;;1.40;1.30;;;;;;;22.20;46.48;100806.75;4445984;28;20126;-52
2024/03/08 03:46:50;;;;;;;1.38;1.27;;;;;;;22.17;46.50;100795.16;4445355;28;20055;-51
2024/03/08 03:49:01;;;;;;;1.33;1.23;;;;;;;22.17;46.67;100790.25;4446869;28;20048;-51
2024/03/08 03:51:11;;;;;;;1.30;1.20;;;;;;;22.17;46.78;100790.25;4445028;28;20076;-50
2024/03/08 03:53:21;;;;;;;1.42;1.30;;;;;;;22.17;46.40;100787.38;4444154;28;20032;-51
2024/03/08 03:55:32;;;;;;;1.73;1.40;;;;;;;22.18;46.43;100780.41;4443337;28;33849;-51
2024/03/08 03:57:45;;;;;;;1.58;1.42;;;;;;;22.18;46.39;100779.59;4444175;28;20040;-53
2024/03/08 03:59:58;;;;;;;1.20;1.10;;;;;;;22.17;46.05;100783.66;4445115;28;20853;-51
2024/03/08 04:02:08;;;;;;;1.55;1.40;;;;;;;22.17;45.95;100777.91;4444957;28;20607;-50
2024/03/08 04:04:19;;;;;;;1.30;1.20;;;;;;;22.17;45.94;100778.75;4443843;28;20406;-53
2024/03/08 04:06:29;;;;;;;1.67;1.52;;;;;;;22.13;46.03;100774.13;4443688;28;20050;-50
2024/03/08 04:08:40;;;;;;;1.65;1.35;;;;;;;22.12;46.33;100776.16;4443509;28;20044;-52
2024/03/08 04:10:51;;;;;;;1.40;1.23;;;;;;;22.14;46.22;100779.50;4444088;28;20035;-52
2024/03/08 04:13:02;;;;;;;2.10;1.55;;;;;;;22.15;46.02;100769.66;4444463;28;20406;-50
2024/03/08 04:15:12;;;;;;;1.83;1.30;;;;;;;22.15;46.19;100775.41;4442594;28;20036;-50
2024/03/08 04:17:24;;;;;;;1.33;1.23;;;;;;;22.16;45.76;100771.34;4443876;28;20040;-51
2024/03/08 04:19:35;;;;;;;1.90;1.38;;;;;;;22.16;45.82;100774.22;4443781;28;21486;-55
2024/03/08 04:21:45;;;;;;;1.50;1.40;;;;;;;22.17;45.61;100770.13;4444458;28;20038;-53
2024/03/08 04:23:56;;;;;;;1.40;1.30;;;;;;;22.18;45.75;100768.09;4443735;28;20422;-51
2024/03/08 04:26:08;;;;;;;1.50;1.40;;;;;;;22.18;45.79;100768.09;4443561;28;20054;-56
2024/03/08 04:28:19;;;;;;;1.40;1.30;;;;;;;22.17;46.51;100764.38;4444802;28;20860;-51
2024/03/08 04:30:30;;;;;;;1.75;1.30;;;;;;;22.14;46.21;100770.88;4444212;28;20126;-51
2024/03/08 04:32:41;;;;;;;2.03;1.40;;;;;;;22.12;46.78;100770.41;4445666;28;20074;-54
2024/03/08 04:34:51;;;;;;;1.50;1.40;;;;;;;22.11;46.54;100763.00;4445442;28;20102;-51
2024/03/08 04:37:04;;;;;;;2.22;1.40;;;;;;;22.11;46.71;100760.13;4444985;28;20495;-51
2024/03/08 04:39:15;;;;;;;1.45;1.35;;;;;;;22.08;46.28;100754.28;4444625;28;20031;-55
2024/03/08 04:41:26;;;;;;;1.40;1.30;;;;;;;22.04;46.13;100754.19;4443200;28;20122;-56
2024/03/08 04:43:36;;;;;;;1.63;1.40;;;;;;;22.05;45.54;100753.00;4432915;28;20151;-51
2024/03/08 04:45:46;;;;;;;1.45;1.23;;;;;;;22.09;45.42;100759.66;4442465;28;20103;-51
2024/03/08 04:47:57;;;;;;;1.33;1.23;;;;;;;22.07;45.19;100744.81;4444472;28;20114;-55
2024/03/08 04:50:08;;;;;;;1.20;1.10;;;;;;;22.03;45.37;100746.78;4442567;28;20107;-53
2024/03/08 04:52:19;;;;;;;1.70;1.52;;;;;;;22.03;45.30;100752.53;4445253;28;20027;-51
2024/03/08 04:54:30;;;;;;;1.58;1.45;;;;;;;22.03;45.13;100743.06;4442648;28;20039;-55
2024/03/08 04:56:41;;;;;;;1.55;1.40;;;;;;;22.01;45.21;100740.56;4443573;28;20043;-51
2024/03/08 04:58:51;;;;;;;1.40;1.30;;;;;;;22.00;44.45;100746.69;4444887;28;20042;-54
2024/03/08 05:01:02;;;;;;;1.80;1.60;;;;;;;21.94;44.65;100740.41;4443600;28;20554;-51
2024/03/08 05:03:12;;;;;;;1.60;1.50;;;;;;;21.95;44.09;100742.06;4444673;28;20042;-55
2024/03/08 05:05:23;;;;;;;1.65;1.50;;;;;;;21.96;43.37;100737.16;4443748;28;25426;-53
2024/03/08 05:07:33;;;;;;;1.70;1.60;;;;;;;21.96;42.24;100737.97;4445240;28;20055;-55
2024/03/08 05:09:51;;;;;;;1.58;1.48;;;;;;;22.00;42.04;100733.16;4447404;28;20047;-55
2024/03/08 05:12:01;;;;;;;1.60;1.50;;;;;;;22.02;38.79;100736.47;4445743;28;20885;-51
2024/03/08 05:14:16;;;;;;;1.88;1.52;;;;;;;22.04;38.90;100733.25;4446276;28;20058;-53
2024/03/08 05:16:26;;;;;;;1.60;1.50;;;;;;;22.05;40.47;100732.88;4445734;28;20043;-52
2024/03/08 05:18:37;;;;;;;2.08;1.67;;;;;;;22.00;40.92;100726.56;4444717;28;20483;-56
2024/03/08 05:20:47;;;;;;;1.70;1.60;;;;;;;21.99;41.21;100734.34;4445369;28;20038;-52
2024/03/08 05:23:00;;;;;;;2.08;1.42;;;;;;;22.02;41.30;100729.91;4447340;28;20042;-51
2024/03/08 05:25:12;;;;;;;2.15;1.40;;;;;;;22.04;41.34;100725.44;4446604;28;20099;-54
2024/03/08 05:27:22;;;;;;;1.50;1.40;;;;;;;22.04;41.98;100722.56;4445382;28;20051;-52
2024/03/08 05:29:33;;;;;;;1.55;1.33;;;;;;;22.06;42.53;100722.19;4446507;28;20399;-53
2024/03/08 05:31:54;;;;;;;1.60;1.50;;;;;;;22.04;42.91;100725.44;4445036;28;20129;-54
2024/03/08 05:34:04;;;;;;;1.40;1.30;;;;;;;22.04;43.64;100727.50;4446358;28;20541;-55
2024/03/08 05:36:16;;;;;;;1.55;1.40;;;;;;;22.04;43.88;100728.31;4446106;28;20063;-50
2024/03/08 05:38:26;;;;;;;1.60;1.40;;;;;;;22.04;43.93;100722.56;4430956;28;20047;-52
2024/03/08 05:40:37;;;;;;;1.40;1.30;;;;;;;22.03;43.63;100726.66;4447158;28;20055;-55
2024/03/08 05:42:47;;;;;;;1.40;1.30;;;;;;;22.00;44.18;100720.84;4445931;28;20049;-53
2024/03/08 05:44:58;;;;;;;1.60;1.50;;;;;;;22.00;43.91;100718.81;4446351;28;21012;-54
2024/03/08 05:47:09;;;;;;;1.83;1.40;;;;;;;22.02;44.09;100721.28;4446517;28;20044;-55
2024/03/08 05:49:19;;;;;;;1.80;1.40;;;;;;;22.03;44.75;100722.94;4446185;28;20027;-51
2024/03/08 05:51:30;;;;;;;1.55;1.45;;;;;;;22.00;45.29;100718.81;4430712;28;20624;-51
2024/03/08 05:53:40;;;;;;;1.40;1.30;;;;;;;21.93;45.26;100718.63;4446538;28;20529;-54
2024/03/08 05:55:51;;;;;;;1.40;1.30;;;;;;;21.95;45.57;100719.09;4431643;28;20052;-55
2024/03/08 05:58:01;;;;;;;1.30;1.20;;;;;;;21.95;45.34;100724.00;4446948;28;20031;-55
2024/03/08 06:00:15;;;;;;;1.42;1.30;;;;;;;21.98;44.94;100724.09;4445922;28;20035;-50
2024/03/08 06:02:25;;;;;;;1.48;1.30;;;;;;;22.00;45.05;100721.66;4446107;28;20039;-55
2024/03/08 06:04:36;;;;;;;1.40;1.30;;;;;;;22.03;45.02;100714.34;4447056;28;20040;-51
2024/03/08 06:06:46;;;;;;;1.60;1.50;;;;;;;22.03;45.34;100714.34;4445094;28;20547;-54
2024/03/08 06:08:58;;;;;;;1.40;1.30;;;;;;;22.00;45.94;100717.97;4445387;28;20179;-55
2024/03/08 06:11:09;;;;;;;1.30;1.20;;;;;;;22.01;45.53;100723.34;4444596;28;20851;-53
2024/03/08 06:13:20;;;;;;;1.83;1.45;;;;;;;21.99;45.73;100717.13;4445826;28;20111;-52
2024/03/08 06:15:30;;;;;;;1.85;1.50;;;;;;;22.04;43.54;100716.81;4444077;28;20044;-53
2024/03/08 06:17:41;;;;;;;1.60;1.40;;;;;;;22.07;45.57;100716.06;4445062;28;20103;-55
2024/03/08 06:19:52;;;;;;;1.60;1.40;;;;;;;22.06;45.44;100711.53;4444520;28;20064;-53
2024/03/08 06:22:05;;;;;;;1.40;1.30;;;;;;;21.99;45.45;100714.25;4447654;28;20027;-53
2024/03/08 06:24:15;;;;;;;1.40;1.30;;;;;;;22.02;45.23;100721.28;4445610;28;20589;-56
2024/03/08 06:26:28;;;;;;;1.40;1.30;;;;;;;22.06;45.36;100716.44;4444850;28;20090;-50
2024/03/08 06:28:38;;;;;;;1.48;1.30;;;;;;;22.06;45.55;100714.41;4446154;28;20031;-51
2024/03/08 06:30:51;;;;;;;1.50;1.40;;;;;;;22.02;45.63;100710.59;4433146;28;20036;-55
2024/03/08 06:33:02;;;;;;;1.42;1.33;;;;;;;22.00;45.54;100713.06;4444830;28;20027;-53
2024/03/08 06:35:12;;;;;;;1.50;1.40;;;;;;;22.01;46.01;100711.00;4445039;28;20031;-52
2024/03/08 06:37:23;;;;;;;1.42;1.30;;;;;;;22.01;46.08;100717.59;4444407;28;20044;-52
2024/03/08 06:39:35;;;;;;;1.50;1.38;;;;;;;22.01;46.42;100716.72;4445316;28;20043;-55
2024/03/08 06:41:46;;;;;;;1.70;1.60;;;;;;;21.99;46.25;100708.50;4445219;28;20035;-51
2024/03/08 06:43:57;;;;;;;1.40;1.30;;;;;;;22.01;46.24;100708.97;4444728;28;20036;-51
2024/03/08 06:46:09;;;;;;;1.58;1.40;;;;;;;22.00;46.21;100713.06;4444803;28;20892;-54
2024/03/08 06:48:19;;;;;;;1.67;1.58;;;;;;;21.97;46.60;100710.94;4445858;28;20765;-51
2024/03/08 06:50:30;;;;;;;1.65;1.55;;;;;;;22.01;44.17;100714.72;4445547;28;20039;-51
2024/03/08 06:52:42;;;;;;;2.10;1.90;;;;;;;22.07;42.63;100721.81;4445809;28;20514;-53
2024/03/08 06:54:52;;;;;;;1.98;1.63;;;;;;;22.12;42.63;100709.19;4444294;28;20120;-51
2024/03/08 06:57:04;;;;;;;2.08;1.80;;;;;;;22.17;42.75;100715.50;4444882;28;20139;-51
2024/03/08 06:59:17;;;;;;;2.13;1.80;;;;;;;22.23;42.55;100712.34;4437303;28;20954;-53
2024/03/08 07:01:31;;;;;;;2.03;1.70;;;;;;;22.19;42.17;100718.84;4444569;28;20079;-51
2024/03/08 07:03:44;;;;;;;2.15;1.70;;;;;;;22.13;42.66;100716.63;4444686;28;20032;-53
2024/03/08 07:05:56;;;;;;;2.35;1.77;;;;;;;22.21;42.27;100716.41;4445273;28;20039;-54
2024/03/08 07:08:06;;;;;;;2.00;1.77;;;;;;;22.25;42.18;100715.69;4445507;28;20070;-53
2024/03/08 07:10:17;;;;;;;1.90;1.70;;;;;;;22.23;42.02;100710.31;4446153;28;20040;-51
2024/03/08 07:12:27;;;;;;;1.83;1.70;;;;;;;22.14;42.71;100718.28;4445369;28;20487;-54
2024/03/08 07:14:40;;;;;;;2.08;1.80;;;;;;;22.08;42.33;100712.00;4432171;28;20416;-55
2024/03/08 07:16:51;;;;;;;1.83;1.65;;;;;;;22.10;42.32;100712.44;4444269;28;20144;-55
2024/03/08 07:19:02;;;;;;;2.00;1.80;;;;;;;22.14;42.42;100710.50;4446006;28;20137;-53
2024/03/08 07:21:13;;;;;;;2.42;1.70;;;;;;;22.07;42.78;100710.31;4444603;28;20063;-52
2024/03/08 07:25:52;;;;;;;1.95;1.73;;;;;;;22.18;42.25;100707.72;4445338;28;20565;-56
2024/03/08 07:28:03;;;;;;;2.15;1.83;;;;;;;22.19;42.40;100706.50;4444358;28;20050;-51
2024/03/08 07:30:51;;;;;;;2.80;1.70;;;;;;;22.17;42.25;100704.00;4443277;28;20068;-51
2024/03/08 07:32:44;;;;;;;2.00;1.80;;;;;;;22.16;42.60;100702.34;4445319;28;20039;-52
2024/03/08 07:34:55;;;;;;;2.15;1.70;;;;;;;22.14;42.35;100710.50;4445202;28;20927;-53
2024/03/08 07:37:10;;;;;;;1.80;1.60;;;;;;;22.12;42.24;100710.03;4443637;28;20043;-52
2024/03/08 07:39:23;;;;;;;1.98;1.60;;;;;;;22.08;42.74;100702.53;4443767;28;20040;-55
2024/03/08 07:41:36;;;;;;;2.33;1.70;;;;;;;22.11;42.64;100704.66;4430913;28;20040;-51
2024/03/08 07:43:46;;;;;;;2.55;1.70;;;;;;;22.05;42.68;100701.28;4443889;28;20042;-51
2024/03/08 07:45:57;;;;;;;2.00;1.80;;;;;;;22.04;42.81;100693.84;4443863;28;20047;-51
2024/03/08 07:48:10;;;;;;;1.77;1.33;;;;;;;22.11;42.55;100699.75;4444570;28;20070;-51
2024/03/08 07:50:22;;;;;;;1.80;1.60;;;;;;;22.15;42.53;100691.22;4446060;28;20119;-51
2024/03/08 07:52:33;;;;;;;1.75;1.65;;;;;;;22.11;42.70;100685.38;4443566;28;20035;-51
2024/03/08 07:54:43;;;;;;;2.47;1.85;;;;;;;22.04;42.88;100693.84;4443934;28;20614;-52
2024/03/08 07:56:54;;;;;;;2.33;1.80;;;;;;;22.07;42.60;100687.34;4442671;28;20040;-51
2024/03/08 07:59:05;;;;;;;1.92;1.70;;;;;;;22.11;42.41;100688.25;4443508;28;20494;-52
2024/03/08 08:01:18;;;;;;;2.97;1.60;;;;;;;22.17;42.45;100691.66;4442353;28;20483;-52
2024/03/08 08:03:29;;;;;;;2.50;1.70;;;;;;;22.08;42.79;100688.19;4445398;28;20032;-50
2024/03/08 08:05:39;;;;;;;3.10;1.83;;;;;;;22.03;43.06;100680.69;4443784;28;20035;-55
2024/03/08 08:07:52;;;;;;;1.90;1.70;;;;;;;22.10;42.39;100688.63;4444086;28;20578;-51
2024/03/08 08:10:02;;;;;;;2.47;1.60;;;;;;;22.10;42.33;100686.56;4444697;28;20042;-55
2024/03/08 08:12:12;;;;;;;1.73;1.58;;;;;;;22.05;42.62;100677.44;4444483;28;20030;-55
2024/03/08 08:14:23;;;;;;;2.00;1.80;;;;;;;22.00;42.67;100687.19;4442574;28;20094;-55
2024/03/08 08:16:33;;;;;;;2.20;1.83;;;;;;;22.14;42.67;100675.16;4443462;28;20079;-55
2024/03/08 08:18:46;;;;;;;1.73;1.60;;;;;;;22.19;42.49;100678.59;4444254;28;20058;-54
2024/03/08 08:20:56;;;;;;;3.40;1.60;;;;;;;22.15;42.33;100677.66;4444036;28;20549;-55
2024/03/08 08:23:06;;;;;;;2.00;1.60;;;;;;;22.17;42.76;100675.25;4443216;28;20048;-54
2024/03/08 08:25:20;;;;;;;2.15;1.60;;;;;;;22.25;42.62;100664.75;4445189;28;20167;-51
2024/03/08 08:27:30;;;;;;;2.47;1.70;;;;;;;22.30;42.17;100672.22;4443081;28;20036;-52
2024/03/08 08:29:41;;;;;;;2.85;1.90;;;;;;;22.30;42.47;100667.31;4429665;28;20047;-54
2024/03/08 08:31:51;;;;;;;1.80;1.65;;;;;;;22.32;42.70;100661.19;4443445;28;20047;-51
2024/03/08 08:34:02;;;;;;;2.08;1.67;;;;;;;22.31;42.34;100657.47;4444284;28;20047;-55
2024/03/08 08:36:13;;;;;;;2.40;2.20;;;;;;;22.31;42.44;100656.66;4444860;28;20044;-51
2024/03/08 08:38:24;;;;;;;3.10;1.70;;;;;;;22.29;42.62;100653.31;4442960;28;20447;-61
2024/03/08 08:40:36;;;;;;;1.77;1.63;;;;;;;22.32;42.57;100652.56;4443523;28;20091;-55
2024/03/08 08:42:46;;;;;;;2.20;1.90;;;;;;;22.28;42.67;100654.53;4447328;28;20036;-54
2024/03/08 08:44:57;;;;;;;2.03;1.70;;;;;;;22.28;42.60;100651.66;4446462;28;20495;-53
2024/03/08 08:47:08;;;;;;;1.88;1.60;;;;;;;22.29;42.87;100651.28;4445890;28;20450;-50
2024/03/08 08:49:20;;;;;;;2.72;1.70;;;;;;;22.26;42.67;100648.31;4447119;28;20394;-55
2024/03/08 08:51:33;;;;;;;2.22;1.70;;;;;;;22.32;42.50;100658.31;4438518;28;20047;-52
2024/03/08 08:53:45;;;;;;;3.90;1.80;;;;;;;22.29;42.98;100647.56;4413869;28;20051;-54
2024/03/08 08:55:56;;;;;;;2.38;1.75;;;;;;;22.17;43.29;100637.88;4443856;28;20032;-54
2024/03/08 08:58:07;;;;;;;2.72;1.70;;;;;;;22.03;43.34;100631.81;4446719;28;20207;-51
2024/03/08 09:00:20;;;;;;;2.38;1.60;;;;;;;22.09;43.34;100630.31;4446521;28;20142;-51
2024/03/08 09:02:30;;;;;;;2.28;1.85;;;;;;;22.10;43.45;100631.97;4431457;28;20585;-55
2024/03/08 09:04:41;;;;;;;2.55;1.95;;;;;;;22.18;43.21;100625.16;4424353;28;20094;-57
2024/03/08 09:06:51;;;;;;;2.03;1.75;;;;;;;22.20;44.10;100621.91;4429436;28;20055;-52
2024/03/08 09:09:03;;;;;;;2.00;1.70;;;;;;;22.27;43.56;100616.31;4447513;28;20115;-55
2024/03/08 09:11:15;;;;;;;2.17;1.73;;;;;;;22.37;43.77;100614.88;4445330;28;20036;-56
2024/03/08 09:13:25;;;;;;;1.70;1.60;;;;;;;22.40;43.80;100608.38;4436701;28;21340;-54
2024/03/08 09:15:36;;;;;;;2.55;1.92;;;;;;;22.42;44.29;100611.72;4413147;28;20106;-52
2024/03/08 09:17:48;;;;;;;1.77;1.60;;;;;;;22.39;44.05;100604.66;4433653;28;20043;-55
2024/03/08 09:19:59;;;;;;;1.95;1.73;;;;;;;22.35;43.41;100602.91;4425739;28;20095;-54
2024/03/08 09:22:10;;;;;;;1.80;1.70;;;;;;;22.31;43.90;100597.09;4419308;28;20093;-54
2024/03/08 09:24:21;;;;;;;2.25;2.00;;;;;;;22.31;43.73;100604.91;4417775;28;20051;-51
2024/03/08 09:26:33;;;;;;;1.70;1.60;;;;;;;22.35;43.79;100600.03;4413089;28;20084;-55
2024/03/08 09:28:43;;;;;;;2.03;1.75;;;;;;;22.32;43.34;100592.19;4437394;28;20135;-54
2024/03/08 09:30:54;;;;;;;2.00;1.80;;;;;;;22.29;43.38;100590.06;4434276;28;20510;-55
2024/03/08 09:33:06;;;;;;;1.70;1.60;;;;;;;22.31;43.33;100587.66;4423256;28;21630;-55
2024/03/08 09:35:16;;;;;;;2.25;1.83;;;;;;;22.35;43.36;100577.03;4420772;28;20059;-54
2024/03/08 09:37:27;;;;;;;2.60;1.70;;;;;;;22.33;43.14;100571.66;4411893;29;20488;-54
2024/03/08 09:39:37;;;;;;;2.03;1.60;;;;;;;22.30;43.49;100569.56;4412998;29;20096;-53
2024/03/08 09:41:48;;;;;;;2.08;1.65;;;;;;;22.26;43.50;100571.53;4412380;28;20119;-51
2024/03/08 09:43:59;;;;;;;1.90;1.70;;;;;;;22.17;43.38;100568.88;4403885;29;20071;-54
2024/03/08 09:46:10;;;;;;;2.65;1.80;;;;;;;22.13;43.82;100559.38;4413120;29;20616;-54
2024/03/08 09:48:22;;;;;;;2.17;1.67;;;;;;;22.13;43.95;100559.38;4413680;28;20061;-54
2024/03/08 09:50:32;;;;;;;2.20;1.67;;;;;;;22.13;43.70;100564.28;4413510;29;20036;-53
2024/03/08 09:52:46;;;;;;;2.22;1.80;;;;;;;22.17;43.55;100547.91;4412008;29;20048;-53
2024/03/08 09:54:56;;;;;;;1.65;1.50;;;;;;;22.28;43.35;100548.97;4389819;28;20926;-54
2024/03/08 09:57:09;;;;;;;1.92;1.50;;;;;;;22.30;43.61;100551.47;4413620;29;20045;-54
2024/03/08 10:01:33;;;;;;;2.67;1.80;;;;;;;22.33;43.66;100545.78;4415241;28;20071;-54
2024/03/08 10:03:43;;;;;;;2.00;1.80;;;;;;;22.39;43.48;100540.56;4412103;29;20050;-54
2024/03/08 10:05:56;;;;;;;1.88;1.60;;;;;;;22.45;43.24;100536.16;4413718;29;20107;-54
2024/03/08 10:08:06;;;;;;;2.13;1.92;;;;;;;22.44;43.35;100535.31;4414816;28;20132;-54
2024/03/08 10:10:17;;;;;;;2.25;1.90;;;;;;;22.44;43.35;100535.31;4412780;29;20097;-54
2024/03/08 10:12:28;;;;;;;2.53;1.85;;;;;;;22.46;43.63;100529.19;4413045;29;20546;-55
2024/03/08 10:14:40;;;;;;;2.33;1.70;;;;;;;22.44;43.44;100529.56;4425680;28;20047;-54